Terminal Aerodrome Forecast
Issued by NWS

Home | Current Version | Previous Version | Text Only | Print | Product List | Glossary Off
Versions: 1 2 3 4 5 6 7 8 9 10 11 12 13 14 15 16 17 18

000
FTUS43 KBIS 241100
TAFMOT
TAF
KMOT 241134Z 2412/2512 18010KT 5SM BR OVC003
      TEMPO 2412/2414 1SM BR OVC002
     FM241400 20005KT P6SM BKN070 OVC090
     FM241800 23012KT P6SM BKN040 OVC080
     FM250300 31008KT P6SM BKN020 OVC040
     FM250900 35012KT P6SM OVC012=

USA.gov is the U.S. government's official web portal to all federal, state and local government web resources and services.